createdAt,value
2016-10-31T00:00:51.086Z,0
2016-10-31T00:01:51.087Z,0
2016-10-31T00:02:51.101Z,0
2016-10-31T00:03:51.137Z,0
2016-10-31T00:04:51.487Z,0
2016-10-31T00:05:51.165Z,0
2016-10-31T00:06:51.157Z,0
2016-10-31T00:07:51.194Z,0
2016-10-31T00:08:51.213Z,0
2016-10-31T00:09:51.217Z,0
2016-10-31T00:10:51.250Z,0
2016-10-31T00:11:51.254Z,0
2016-10-31T00:12:51.258Z,0
2016-10-31T00:13:51.302Z,0
2016-10-31T00:14:51.320Z,0
2016-10-31T00:15:51.312Z,0
2016-10-31T00:16:51.352Z,0
2016-10-31T00:17:51.343Z,0
2016-10-31T00:18:51.415Z,0
2016-10-31T00:19:51.375Z,0
2016-10-31T00:20:51.413Z,0
2016-10-31T00:21:51.435Z,0
2016-10-31T00:22:51.451Z,0
2016-10-31T00:23:51.459Z,0
2016-10-31T00:24:51.452Z,0
2016-10-31T00:25:51.479Z,0
2016-10-31T00:26:51.502Z,0
2016-10-31T00:27:51.523Z,0
2016-10-31T00:28:51.526Z,0
2016-10-31T00:29:51.560Z,0
2016-10-31T00:30:51.570Z,0
2016-10-31T00:31:51.595Z,0
2016-10-31T00:32:51.578Z,0
2016-10-31T00:33:51.620Z,0
2016-10-31T00:34:51.638Z,0
2016-10-31T00:35:51.640Z,0
2016-10-31T00:36:51.658Z,0
2016-10-31T00:37:51.671Z,0
2016-10-31T00:38:51.687Z,0
2016-10-31T00:39:51.723Z,0
2016-10-31T00:40:51.725Z,0
2016-10-31T00:41:51.735Z,0
2016-10-31T00:42:51.768Z,0
2016-10-31T00:43:51.778Z,0
2016-10-31T00:44:51.808Z,0
2016-10-31T00:45:51.828Z,0
2016-10-31T00:46:51.831Z,0
2016-10-31T00:47:51.852Z,0
2016-10-31T00:48:51.861Z,0
2016-10-31T00:49:51.879Z,0
2016-10-31T00:50:51.929Z,0
2016-10-31T00:51:51.931Z,0
2016-10-31T00:52:51.910Z,0
2016-10-31T00:53:51.934Z,0
2016-10-31T00:54:51.972Z,0
2016-10-31T00:55:51.962Z,0
2016-10-31T00:56:51.989Z,0
2016-10-31T00:57:52.004Z,0
2016-10-31T00:58:52.015Z,0
2016-10-31T00:59:52.044Z,0
2016-10-31T01:00:52.038Z,0
2016-10-31T01:01:52.072Z,0
2016-10-31T01:02:52.083Z,0
2016-10-31T01:03:52.103Z,0
2016-10-31T01:04:52.105Z,0
2016-10-31T01:05:52.125Z,0
2016-10-31T01:06:52.159Z,0
2016-10-31T01:07:52.162Z,0
2016-10-31T01:08:52.185Z,0
2016-10-31T01:09:52.206Z,0
2016-10-31T01:10:52.211Z,0
2016-10-31T01:11:52.221Z,0
2016-10-31T01:12:52.247Z,0
2016-10-31T01:13:52.254Z,0
2016-10-31T01:14:52.284Z,0
2016-10-31T01:15:52.283Z,0
2016-10-31T01:16:52.316Z,0
2016-10-31T01:17:52.327Z,0
2016-10-31T01:18:52.384Z,0
2016-10-31T01:19:52.351Z,0
2016-10-31T01:20:52.376Z,0
2016-10-31T01:21:52.368Z,0
2016-10-31T01:22:52.409Z,0
2016-10-31T01:23:52.417Z,0
2016-10-31T01:24:52.440Z,0
2016-10-31T01:25:52.448Z,0
2016-10-31T01:26:52.473Z,0
2016-10-31T01:27:52.545Z,0
2016-10-31T01:28:52.501Z,0
2016-10-31T01:29:52.512Z,0
2016-10-31T01:30:52.541Z,0
2016-10-31T01:31:52.561Z,0
2016-10-31T01:32:52.559Z,0
2016-10-31T01:33:52.579Z,0
2016-10-31T01:34:52.601Z,0
2016-10-31T01:35:52.618Z,0
2016-10-31T01:36:52.642Z,0
2016-10-31T01:37:52.639Z,0
2016-10-31T01:38:52.662Z,0
2016-10-31T01:39:52.713Z,0
2016-10-31T01:40:52.689Z,0
2016-10-31T01:41:52.705Z,0
2016-10-31T01:42:52.728Z,0
2016-10-31T01:43:52.756Z,0
2016-10-31T01:44:52.758Z,0
2016-10-31T01:45:52.775Z,0
2016-10-31T01:46:52.835Z,0
2016-10-31T01:47:52.815Z,0
2016-10-31T01:48:52.831Z,0
2016-10-31T01:49:52.820Z,0
2016-10-31T01:50:52.852Z,0
2016-10-31T01:51:52.865Z,0
2016-10-31T01:52:52.886Z,0
2016-10-31T01:53:52.900Z,0
2016-10-31T01:54:52.901Z,0
2016-10-31T01:55:52.941Z,0
2016-10-31T01:56:52.953Z,0
2016-10-31T01:57:52.966Z,0
2016-10-31T01:58:53.021Z,0
2016-10-31T01:59:53.009Z,0
2016-10-31T02:00:53.017Z,0
2016-10-31T02:01:53.033Z,0
2016-10-31T02:02:53.043Z,0
2016-10-31T02:03:53.055Z,0
2016-10-31T02:04:53.066Z,0
2016-10-31T02:05:53.090Z,0
2016-10-31T02:06:53.095Z,0
2016-10-31T02:07:53.121Z,0
2016-10-31T02:08:53.143Z,0
2016-10-31T02:09:53.149Z,0
2016-10-31T02:10:53.176Z,0
2016-10-31T02:11:53.186Z,0
2016-10-31T02:12:53.206Z,0
2016-10-31T02:13:53.215Z,0
2016-10-31T02:14:53.249Z,0
2016-10-31T02:15:53.242Z,0
2016-10-31T02:16:53.278Z,0
2016-10-31T02:17:53.284Z,0
2016-10-31T02:18:53.299Z,0
2016-10-31T02:19:53.322Z,0
2016-10-31T02:20:53.334Z,0
2016-10-31T02:21:53.347Z,0
2016-10-31T02:22:53.365Z,0
2016-10-31T02:23:53.374Z,0
2016-10-31T02:24:53.406Z,0
2016-10-31T02:25:53.402Z,0
2016-10-31T02:26:53.447Z,0
2016-10-31T02:27:53.441Z,0
2016-10-31T02:28:53.453Z,0
2016-10-31T02:29:53.472Z,0
2016-10-31T02:30:53.479Z,0
2016-10-31T02:31:53.492Z,0
2016-10-31T02:32:53.540Z,0
2016-10-31T02:33:53.535Z,0
2016-10-31T02:34:53.542Z,0
2016-10-31T02:35:53.577Z,0
2016-10-31T02:36:53.583Z,0
2016-10-31T02:37:53.606Z,0
2016-10-31T02:38:53.663Z,0
2016-10-31T02:39:53.632Z,0
2016-10-31T02:40:53.654Z,0
2016-10-31T02:41:53.677Z,0
2016-10-31T02:42:53.698Z,0
2016-10-31T02:43:53.708Z,0
2016-10-31T02:44:53.703Z,0
2016-10-31T02:45:53.729Z,0
2016-10-31T02:46:54.085Z,0
2016-10-31T02:47:53.758Z,0
2016-10-31T02:48:53.794Z,0
2016-10-31T02:49:53.802Z,0
2016-10-31T02:50:53.819Z,0
2016-10-31T02:51:53.836Z,0
2016-10-31T02:52:53.863Z,0
2016-10-31T02:53:53.859Z,0
2016-10-31T02:54:53.896Z,0
2016-10-31T02:55:53.906Z,0
2016-10-31T02:56:53.910Z,0
2016-10-31T02:57:53.918Z,0
2016-10-31T02:58:53.937Z,0
2016-10-31T02:59:53.964Z,0
2016-10-31T03:00:53.971Z,0
2016-10-31T03:01:53.984Z,0
2016-10-31T03:02:53.994Z,0
2016-10-31T03:03:54.037Z,0
2016-10-31T03:04:54.035Z,0
2016-10-31T03:05:54.053Z,0
2016-10-31T03:06:54.076Z,0
2016-10-31T03:07:54.082Z,0
2016-10-31T03:08:54.108Z,0
2016-10-31T03:09:54.120Z,0
2016-10-31T03:10:54.144Z,0
2016-10-31T03:11:54.143Z,0
2016-10-31T03:12:54.167Z,0
2016-10-31T03:13:54.175Z,0
2016-10-31T03:14:54.213Z,0
2016-10-31T03:15:54.221Z,0
2016-10-31T03:16:54.239Z,0
2016-10-31T03:17:54.253Z,0
2016-10-31T03:18:54.260Z,0
2016-10-31T03:19:54.309Z,0
2016-10-31T03:20:54.337Z,0
2016-10-31T03:21:54.324Z,0
2016-10-31T03:22:54.317Z,0
2016-10-31T03:23:54.353Z,0
2016-10-31T03:24:54.412Z,0
2016-10-31T03:25:54.365Z,0
2016-10-31T03:26:54.408Z,0
2016-10-31T03:27:54.417Z,0
2016-10-31T03:28:54.422Z,0
2016-10-31T03:29:54.486Z,0
2016-10-31T03:30:54.462Z,0
2016-10-31T03:31:54.484Z,0
2016-10-31T03:32:54.538Z,0
2016-10-31T03:33:54.499Z,0
2016-10-31T03:34:54.523Z,0
2016-10-31T03:35:54.538Z,0
2016-10-31T03:36:54.571Z,0
2016-10-31T03:37:54.575Z,0
2016-10-31T03:38:54.593Z,0
2016-10-31T03:39:54.605Z,0
2016-10-31T03:40:54.624Z,0
2016-10-31T03:41:54.626Z,0
2016-10-31T03:42:54.656Z,0
2016-10-31T03:43:54.709Z,0
2016-10-31T03:44:54.688Z,0
2016-10-31T03:45:54.691Z,0
2016-10-31T03:46:54.714Z,0
2016-10-31T03:47:54.735Z,0
2016-10-31T03:48:54.759Z,0
2016-10-31T03:49:54.795Z,0
2016-10-31T03:50:54.781Z,0
2016-10-31T03:51:54.802Z,0
2016-10-31T03:52:54.812Z,0
2016-10-31T03:53:54.843Z,0
2016-10-31T03:54:54.857Z,0
2016-10-31T03:55:54.857Z,0
2016-10-31T03:56:54.881Z,0
2016-10-31T03:57:54.896Z,0
2016-10-31T03:58:54.900Z,0
2016-10-31T03:59:54.947Z,0
2016-10-31T04:01:39.452Z,0
2016-10-31T04:01:54.961Z,0
2016-10-31T04:02:55.021Z,0
2016-10-31T04:03:54.992Z,0
2016-10-31T04:04:55.037Z,0
2016-10-31T04:05:55.035Z,0
2016-10-31T04:06:55.066Z,0
2016-10-31T04:07:55.061Z,0
2016-10-31T04:08:55.115Z,0
2016-10-31T04:09:55.103Z,0
2016-10-31T04:10:55.113Z,0
2016-10-31T04:11:55.112Z,0
2016-10-31T04:12:55.139Z,0
2016-10-31T04:13:55.148Z,0
2016-10-31T04:14:55.215Z,0
2016-10-31T04:15:55.195Z,0
2016-10-31T04:16:55.192Z,0
2016-10-31T04:17:55.225Z,0
2016-10-31T04:18:55.256Z,0
2016-10-31T04:19:55.256Z,0
2016-10-31T04:20:55.369Z,0
2016-10-31T04:21:55.284Z,0
2016-10-31T04:22:55.372Z,0
2016-10-31T04:23:55.321Z,0
2016-10-31T04:24:55.374Z,0
2016-10-31T04:25:55.352Z,0
2016-10-31T04:26:55.372Z,0
2016-10-31T04:27:55.382Z,0
2016-10-31T04:28:55.429Z,0
2016-10-31T04:29:55.418Z,0
2016-10-31T04:30:55.451Z,0
2016-10-31T04:31:55.457Z,0
2016-10-31T04:32:55.502Z,0
2016-10-31T04:33:55.479Z,0
2016-10-31T04:34:55.508Z,0
2016-10-31T04:35:55.511Z,0
2016-10-31T04:36:55.518Z,0
2016-10-31T04:37:55.539Z,0
2016-10-31T04:38:55.544Z,0
2016-10-31T04:39:55.572Z,0
2016-10-31T04:40:55.598Z,0
2016-10-31T04:41:55.626Z,0
2016-10-31T04:42:55.623Z,0
2016-10-31T04:43:55.640Z,0
2016-10-31T04:44:55.663Z,0
2016-10-31T04:45:55.675Z,0
2016-10-31T04:46:55.727Z,0
2016-10-31T04:47:55.710Z,0
2016-10-31T04:48:55.718Z,0
2016-10-31T04:49:55.742Z,0
2016-10-31T04:50:55.771Z,0
2016-10-31T04:51:55.768Z,0
2016-10-31T04:52:55.795Z,0
2016-10-31T04:53:55.802Z,0
2016-10-31T04:54:55.811Z,0
2016-10-31T04:55:55.837Z,0
2016-10-31T04:56:55.876Z,0
2016-10-31T04:57:55.875Z,0
2016-10-31T04:58:55.897Z,0
2016-10-31T04:59:55.901Z,0
2016-10-31T05:00:55.907Z,0
2016-10-31T05:01:55.925Z,0
2016-10-31T05:02:55.955Z,0
2016-10-31T05:03:55.960Z,0
2016-10-31T05:04:56.008Z,0
2016-10-31T05:05:55.994Z,0
2016-10-31T05:06:56.046Z,0
2016-10-31T05:07:56.019Z,0
2016-10-31T05:08:56.079Z,0
2016-10-31T05:09:56.059Z,0
2016-10-31T05:10:56.099Z,0
2016-10-31T05:11:56.090Z,0
2016-10-31T05:12:56.096Z,0
2016-10-31T05:13:56.144Z,0
2016-10-31T05:14:56.134Z,0
2016-10-31T05:15:56.161Z,0
2016-10-31T05:16:56.160Z,0
2016-10-31T05:17:56.173Z,0
2016-10-31T05:18:56.203Z,0
2016-10-31T05:19:56.251Z,0
2016-10-31T05:20:56.231Z,0
2016-10-31T05:21:56.250Z,0
2016-10-31T05:22:56.246Z,0
2016-10-31T05:23:56.278Z,0
2016-10-31T05:24:56.309Z,0
2016-10-31T05:25:56.294Z,0
2016-10-31T05:26:56.397Z,0
2016-10-31T05:27:56.327Z,0
2016-10-31T05:28:56.352Z,0
2016-10-31T05:29:56.368Z,0
2016-10-31T05:30:56.391Z,0
2016-10-31T05:31:56.415Z,0
2016-10-31T05:32:56.420Z,0
2016-10-31T05:33:56.443Z,0
2016-10-31T05:34:56.461Z,0
2016-10-31T05:35:56.467Z,0
2016-10-31T05:36:56.526Z,0
2016-10-31T05:37:56.508Z,0
2016-10-31T05:38:56.518Z,0
2016-10-31T05:39:56.539Z,0
2016-10-31T05:40:56.536Z,0
2016-10-31T05:41:56.569Z,0
2016-10-31T05:42:56.592Z,0
2016-10-31T05:43:56.572Z,4
2016-10-31T05:44:56.604Z,4
2016-10-31T05:45:56.632Z,0
2016-10-31T05:46:56.643Z,4
2016-10-31T05:47:56.645Z,4
2016-10-31T05:48:56.678Z,4
2016-10-31T05:49:56.683Z,4
2016-10-31T05:50:56.709Z,4
2016-10-31T05:51:56.698Z,8
2016-10-31T05:52:56.732Z,8
2016-10-31T05:53:56.763Z,8
2016-10-31T05:54:56.769Z,12
2016-10-31T05:55:56.781Z,12
2016-10-31T05:56:56.796Z,12
2016-10-31T05:57:56.804Z,20
2016-10-31T05:58:56.859Z,20
2016-10-31T05:59:56.829Z,20
2016-10-31T06:00:56.861Z,24
2016-10-31T06:01:56.882Z,32
2016-10-31T06:02:56.944Z,36
2016-10-31T06:03:56.935Z,40
2016-10-31T06:04:56.920Z,48
2016-10-31T06:05:56.946Z,56
2016-10-31T06:06:56.952Z,64
2016-10-31T06:07:56.960Z,72
2016-10-31T06:08:56.992Z,80
2016-10-31T06:09:57.006Z,88
2016-10-31T06:10:57.047Z,100
2016-10-31T06:11:57.043Z,116
2016-10-31T06:12:57.061Z,128
2016-10-31T06:13:57.117Z,140
2016-10-31T06:14:57.106Z,156
2016-10-31T06:15:57.133Z,176
2016-10-31T06:16:57.113Z,192
2016-10-31T06:17:57.173Z,208
2016-10-31T06:18:57.158Z,228
2016-10-31T06:19:57.151Z,240
2016-10-31T06:20:57.176Z,260
2016-10-31T06:21:57.238Z,284
2016-10-31T06:22:57.201Z,308
2016-10-31T06:23:57.207Z,332
2016-10-31T06:24:57.241Z,360
2016-10-31T06:25:57.248Z,392
2016-10-31T06:26:57.279Z,428
2016-10-31T06:27:57.295Z,464
2016-10-31T06:28:57.312Z,496
2016-10-31T06:29:57.322Z,524
2016-10-31T06:30:57.329Z,548
2016-10-31T06:31:57.349Z,576
2016-10-31T06:32:57.352Z,604
2016-10-31T06:33:57.368Z,640
2016-10-31T06:34:57.385Z,676
2016-10-31T06:35:57.414Z,708
2016-10-31T06:36:57.432Z,736
2016-10-31T06:37:57.456Z,760
2016-10-31T06:38:57.443Z,792
2016-10-31T06:39:57.482Z,832
2016-10-31T06:40:57.526Z,872
2016-10-31T06:41:57.512Z,924
2016-10-31T06:42:57.532Z,980
2016-10-31T06:43:57.541Z,1044
2016-10-31T06:44:57.551Z,1104
2016-10-31T06:45:57.570Z,1152
2016-10-31T06:46:57.643Z,1188
2016-10-31T06:47:57.608Z,1232
2016-10-31T06:48:57.649Z,1272
2016-10-31T06:49:57.634Z,1316
2016-10-31T06:50:57.740Z,1356
2016-10-31T06:51:57.671Z,1388
2016-10-31T06:52:57.733Z,1396
2016-10-31T06:53:57.692Z,1412
2016-10-31T06:54:57.756Z,1408
2016-10-31T06:55:57.731Z,1424
2016-10-31T06:56:57.777Z,1452
2016-10-31T06:57:57.761Z,1480
2016-10-31T06:58:57.845Z,1516
2016-10-31T06:59:57.768Z,1552
2016-10-31T07:00:57.851Z,1596
2016-10-31T07:01:57.830Z,1656
2016-10-31T07:02:57.880Z,1688
2016-10-31T07:03:57.874Z,1700
2016-10-31T07:04:57.895Z,1716
2016-10-31T07:05:57.888Z,1740
2016-10-31T07:06:57.904Z,1756
2016-10-31T07:07:57.933Z,1768
2016-10-31T07:08:57.946Z,1796
2016-10-31T07:09:57.950Z,1816
2016-10-31T07:10:57.987Z,1844
2016-10-31T07:11:57.980Z,1872
2016-10-31T07:12:57.998Z,1912
2016-10-31T07:13:58.040Z,1952
2016-10-31T07:14:58.041Z,2004
2016-10-31T07:15:58.060Z,2060
2016-10-31T07:16:58.078Z,2120
2016-10-31T07:17:58.098Z,2184
2016-10-31T07:18:58.096Z,2224
2016-10-31T07:19:58.124Z,2256
2016-10-31T07:20:58.141Z,2288
2016-10-31T07:21:58.154Z,2328
2016-10-31T07:22:58.160Z,2356
2016-10-31T07:23:58.200Z,2388
2016-10-31T07:24:58.201Z,2404
2016-10-31T07:25:58.202Z,2424
2016-10-31T07:26:58.237Z,2432
2016-10-31T07:27:58.261Z,2440
2016-10-31T07:28:58.313Z,2452
2016-10-31T07:29:58.271Z,2472
2016-10-31T07:30:58.311Z,2492
2016-10-31T07:31:58.363Z,2516
2016-10-31T07:32:58.341Z,2548
2016-10-31T07:33:58.342Z,2580
2016-10-31T07:34:58.371Z,2592
2016-10-31T07:35:58.384Z,2596
2016-10-31T07:36:58.396Z,2612
2016-10-31T07:37:58.414Z,2636
2016-10-31T07:38:58.455Z,2672
2016-10-31T07:39:58.437Z,2700
2016-10-31T07:40:58.471Z,2740
2016-10-31T07:41:58.516Z,2836
2016-10-31T07:42:58.534Z,2908
2016-10-31T07:43:58.507Z,3032
2016-10-31T07:44:58.531Z,3208
2016-10-31T07:45:58.557Z,3040
2016-10-31T07:46:58.574Z,3076
2016-10-31T07:47:58.590Z,3684
2016-10-31T07:48:58.596Z,3044
2016-10-31T07:49:58.614Z,3020
2016-10-31T07:50:58.638Z,3060
2016-10-31T07:51:58.634Z,3168
2016-10-31T07:52:58.679Z,3156
2016-10-31T07:53:58.679Z,3128
2016-10-31T07:54:58.701Z,3168
2016-10-31T07:55:58.731Z,3256
2016-10-31T07:56:58.778Z,3572
2016-10-31T07:57:58.769Z,3996
2016-10-31T07:58:58.769Z,3840
2016-10-31T07:59:58.779Z,3888
2016-10-31T08:00:58.791Z,4076
2016-10-31T08:01:58.802Z,3876
2016-10-31T08:02:58.820Z,4552
2016-10-31T08:03:58.849Z,5124
2016-10-31T08:04:58.853Z,5284
2016-10-31T08:05:58.899Z,5324
2016-10-31T08:06:58.923Z,5392
2016-10-31T08:07:58.909Z,5456
2016-10-31T08:08:58.972Z,5512
2016-10-31T08:09:58.944Z,5560
2016-10-31T08:10:58.968Z,5616
2016-10-31T08:11:58.982Z,5644
2016-10-31T08:12:59.041Z,5676
2016-10-31T08:13:59.016Z,5720
2016-10-31T08:14:59.027Z,5708
2016-10-31T08:15:59.047Z,5772
2016-10-31T08:16:59.070Z,5760
2016-10-31T08:17:59.096Z,5824
2016-10-31T08:18:59.100Z,5888
2016-10-31T08:19:59.112Z,5948
2016-10-31T08:20:59.143Z,6020
2016-10-31T08:21:59.144Z,6088
2016-10-31T08:22:59.176Z,6140
2016-10-31T08:23:59.195Z,6204
2016-10-31T08:24:59.197Z,6264
2016-10-31T08:25:59.217Z,6328
2016-10-31T08:26:59.247Z,6412
2016-10-31T08:27:59.248Z,6476
2016-10-31T08:28:59.282Z,6500
2016-10-31T08:29:59.289Z,6544
2016-10-31T08:30:59.342Z,6592
2016-10-31T08:31:59.326Z,6648
2016-10-31T08:32:59.338Z,6672
2016-10-31T08:33:59.365Z,6704
2016-10-31T08:34:59.376Z,6748
2016-10-31T08:35:59.411Z,6780
2016-10-31T08:36:59.439Z,6804
2016-10-31T08:37:59.439Z,6852
2016-10-31T08:38:59.477Z,6884
2016-10-31T08:39:59.473Z,6912
2016-10-31T08:40:59.503Z,6964
2016-10-31T08:41:59.517Z,7000
2016-10-31T08:42:59.534Z,7000
2016-10-31T08:43:59.550Z,7048
2016-10-31T08:44:59.564Z,7080
2016-10-31T08:45:59.601Z,7104
2016-10-31T08:46:59.627Z,7132
2016-10-31T08:47:59.622Z,7132
2016-10-31T08:48:59.663Z,6652
2016-10-31T08:49:59.668Z,6364
2016-10-31T08:50:59.686Z,5108
2016-10-31T08:51:59.713Z,5004
2016-10-31T08:52:59.718Z,4976
2016-10-31T08:53:59.727Z,4984
2016-10-31T08:54:59.752Z,4964
2016-10-31T08:55:59.796Z,4940
2016-10-31T08:56:59.783Z,4936
2016-10-31T08:57:59.815Z,4952
2016-10-31T08:58:59.861Z,5000
2016-10-31T08:59:59.833Z,4976
2016-10-31T09:00:59.881Z,4920
2016-10-31T09:01:59.896Z,4876
2016-10-31T09:02:59.911Z,4864
2016-10-31T09:03:59.927Z,4884
2016-10-31T09:04:59.986Z,4864
2016-10-31T09:05:59.958Z,4856
2016-10-31T09:07:00.023Z,4860
2016-10-31T09:07:59.996Z,4868
2016-10-31T09:09:00.083Z,4884
2016-10-31T09:10:00.046Z,4884
2016-10-31T09:11:00.087Z,4904
2016-10-31T09:12:00.087Z,4964
2016-10-31T09:13:00.119Z,5016
2016-10-31T09:14:00.117Z,5068
2016-10-31T09:15:00.137Z,5140
2016-10-31T09:16:00.148Z,5208
2016-10-31T09:17:00.222Z,5260
2016-10-31T09:18:00.196Z,5320
2016-10-31T09:19:00.217Z,5400
2016-10-31T09:20:00.230Z,5472
2016-10-31T09:21:00.242Z,5500
2016-10-31T09:22:00.272Z,5588
2016-10-31T09:23:00.280Z,5744
2016-10-31T09:24:00.297Z,5772
2016-10-31T09:25:00.331Z,5784
2016-10-31T09:26:00.347Z,5804
2016-10-31T09:27:00.362Z,5912
2016-10-31T09:28:00.385Z,6180
2016-10-31T09:29:00.381Z,5932
2016-10-31T09:30:00.416Z,5948
2016-10-31T09:31:00.407Z,6008
2016-10-31T09:32:00.444Z,5756
2016-10-31T09:33:00.465Z,5604
2016-10-31T09:34:00.478Z,5672
2016-10-31T09:35:00.519Z,5780
2016-10-31T09:36:00.528Z,6460
2016-10-31T09:37:00.553Z,5144
2016-10-31T09:38:00.564Z,4848
2016-10-31T09:39:00.573Z,4592
2016-10-31T09:40:00.592Z,4412
2016-10-31T09:41:00.591Z,4324
2016-10-31T09:42:00.629Z,4336
2016-10-31T09:43:00.636Z,4468
2016-10-31T09:44:00.686Z,4864
2016-10-31T09:45:00.710Z,4704
2016-10-31T09:46:00.712Z,4688
2016-10-31T09:47:00.729Z,4888
2016-10-31T09:48:00.742Z,4772
2016-10-31T09:49:00.759Z,4744
2016-10-31T09:50:00.795Z,5224
2016-10-31T09:51:00.800Z,5364
2016-10-31T09:52:00.832Z,5132
2016-10-31T09:53:00.829Z,5052
2016-10-31T09:54:00.863Z,5516
2016-10-31T09:55:00.879Z,6116
2016-10-31T09:56:00.908Z,6084
2016-10-31T09:57:00.925Z,7504
2016-10-31T09:58:00.953Z,7500
2016-10-31T09:59:00.965Z,7532
2016-10-31T10:00:00.966Z,7568
2016-10-31T10:01:00.997Z,7612
2016-10-31T10:02:00.995Z,7652
2016-10-31T10:03:01.034Z,7640
2016-10-31T10:04:01.043Z,7684
2016-10-31T10:05:01.068Z,7764
2016-10-31T10:06:01.087Z,7592
2016-10-31T10:07:01.097Z,8044
2016-10-31T10:08:01.127Z,8096
2016-10-31T10:09:01.139Z,7964
2016-10-31T10:10:01.157Z,7944
2016-10-31T10:11:01.174Z,8268
2016-10-31T10:12:01.189Z,7760
2016-10-31T10:13:01.234Z,7732
2016-10-31T10:14:01.232Z,6772
2016-10-31T10:15:01.241Z,6988
2016-10-31T10:16:01.272Z,6908
2016-10-31T10:17:01.301Z,7800
2016-10-31T10:18:01.315Z,7616
2016-10-31T10:19:01.379Z,7304
2016-10-31T10:20:01.352Z,6684
2016-10-31T10:21:01.594Z,6824
2016-10-31T10:22:01.383Z,6672
2016-10-31T10:23:01.413Z,6592
2016-10-31T10:24:01.419Z,6684
2016-10-31T10:25:01.458Z,6708
2016-10-31T10:26:01.445Z,6436
2016-10-31T10:27:01.488Z,6500
2016-10-31T10:28:01.513Z,6376
2016-10-31T10:29:01.535Z,6352
2016-10-31T10:30:01.531Z,6400
2016-10-31T10:31:01.559Z,6308
2016-10-31T10:32:01.586Z,6248
2016-10-31T10:33:01.589Z,6236
2016-10-31T10:34:01.615Z,6164
2016-10-31T10:35:01.631Z,6108
2016-10-31T10:36:01.664Z,6064
2016-10-31T10:37:01.689Z,6012
2016-10-31T10:38:01.682Z,5984
2016-10-31T10:39:01.764Z,5964
2016-10-31T10:40:01.771Z,5940
2016-10-31T10:41:01.745Z,5880
2016-10-31T10:42:01.779Z,5836
2016-10-31T10:43:01.796Z,5824
2016-10-31T10:44:01.796Z,5800
2016-10-31T10:45:01.874Z,5792
2016-10-31T10:46:01.875Z,5772
2016-10-31T10:47:01.876Z,5680
2016-10-31T10:48:01.904Z,5676
2016-10-31T10:49:01.913Z,5664
2016-10-31T10:50:01.970Z,5668
2016-10-31T10:51:01.937Z,5692
2016-10-31T10:52:01.972Z,5724
2016-10-31T10:53:01.965Z,5764
2016-10-31T10:54:01.999Z,5812
2016-10-31T10:55:02.037Z,5864
2016-10-31T10:56:02.047Z,5884
2016-10-31T10:57:02.065Z,5900
2016-10-31T10:58:02.090Z,5908
2016-10-31T10:59:02.095Z,5912
2016-10-31T11:00:02.140Z,5896
2016-10-31T11:01:02.143Z,5876
2016-10-31T11:02:02.173Z,5908
2016-10-31T11:03:02.193Z,5956
2016-10-31T11:04:02.199Z,5996
2016-10-31T11:05:02.240Z,6004
2016-10-31T11:06:02.245Z,5960
2016-10-31T11:07:02.314Z,5948
2016-10-31T11:08:02.279Z,5960
2016-10-31T11:09:02.343Z,5972
2016-10-31T11:10:02.315Z,5984
2016-10-31T11:11:02.411Z,5980
2016-10-31T11:12:02.358Z,6072
2016-10-31T11:13:02.410Z,6112
2016-10-31T11:14:02.407Z,6264
2016-10-31T11:15:02.460Z,6280
2016-10-31T11:16:02.431Z,6144
2016-10-31T11:17:02.495Z,6060
2016-10-31T11:18:02.490Z,6068
2016-10-31T11:19:02.506Z,6260
2016-10-31T11:20:02.521Z,6332
2016-10-31T11:21:02.543Z,6160
2016-10-31T11:22:02.555Z,6000
2016-10-31T11:23:02.579Z,5804
2016-10-31T11:24:02.597Z,5712
2016-10-31T11:25:02.594Z,5656
2016-10-31T11:26:02.666Z,5584
2016-10-31T11:27:02.640Z,5520
2016-10-31T11:28:02.658Z,5468
2016-10-31T11:29:02.696Z,5408
2016-10-31T11:30:02.697Z,5328
2016-10-31T11:31:02.720Z,5236
2016-10-31T11:32:02.746Z,5156
2016-10-31T11:33:02.782Z,5064
2016-10-31T11:34:02.789Z,5004
2016-10-31T11:35:02.823Z,4940
2016-10-31T11:36:02.826Z,4876
2016-10-31T11:37:02.854Z,4848
2016-10-31T11:38:02.865Z,4820
2016-10-31T11:39:02.888Z,4788
2016-10-31T11:40:02.900Z,4768
2016-10-31T11:41:02.916Z,4748
2016-10-31T11:42:02.945Z,4692
2016-10-31T11:43:02.952Z,4644
2016-10-31T11:44:02.979Z,4604
2016-10-31T11:45:03.004Z,4572
2016-10-31T11:46:03.001Z,4548
2016-10-31T11:47:03.042Z,4524
2016-10-31T11:48:03.123Z,4548
2016-10-31T11:49:03.067Z,4628
2016-10-31T11:50:03.101Z,4540
2016-10-31T11:51:03.130Z,4548
2016-10-31T11:52:03.120Z,4676
2016-10-31T11:53:03.152Z,4764
2016-10-31T11:54:03.170Z,5008
2016-10-31T11:55:03.205Z,5696
2016-10-31T11:56:03.189Z,5588
2016-10-31T11:57:03.223Z,4928
2016-10-31T11:58:03.251Z,5900
2016-10-31T11:59:03.281Z,6232
2016-10-31T12:00:03.294Z,6280
2016-10-31T12:01:03.304Z,6996
2016-10-31T12:02:03.315Z,7336
2016-10-31T12:03:03.333Z,7324
2016-10-31T12:04:03.353Z,7176
2016-10-31T12:05:03.371Z,7060
2016-10-31T12:06:03.406Z,7076
2016-10-31T12:07:03.419Z,7104
2016-10-31T12:08:03.431Z,7008
2016-10-31T12:09:03.454Z,6976
2016-10-31T12:10:03.487Z,6968
2016-10-31T12:11:03.509Z,6892
2016-10-31T12:12:03.517Z,6688
2016-10-31T12:13:03.539Z,6792
2016-10-31T12:14:03.558Z,6748
2016-10-31T12:15:03.569Z,6744
2016-10-31T12:16:03.610Z,6676
2016-10-31T12:17:03.611Z,6520
2016-10-31T12:18:03.678Z,6540
2016-10-31T12:19:03.672Z,6312
2016-10-31T12:20:03.679Z,6172
2016-10-31T12:21:03.700Z,6256
2016-10-31T12:22:03.754Z,6420
2016-10-31T12:23:03.731Z,6400
2016-10-31T12:24:03.757Z,6388
2016-10-31T12:25:03.761Z,6384
2016-10-31T12:26:03.802Z,6380
2016-10-31T12:27:03.809Z,6356
2016-10-31T12:28:03.840Z,6332
2016-10-31T12:29:03.857Z,6316
2016-10-31T12:30:03.874Z,6384
2016-10-31T12:31:03.880Z,6268
2016-10-31T12:32:03.911Z,6236
2016-10-31T12:33:03.929Z,6100
2016-10-31T12:34:04.000Z,6168
2016-10-31T12:35:03.964Z,6144
2016-10-31T12:36:03.991Z,6116
2016-10-31T12:37:04.008Z,6088
2016-10-31T12:38:04.033Z,6068
2016-10-31T12:39:04.060Z,6052
2016-10-31T12:40:04.062Z,6028
2016-10-31T12:41:04.091Z,6004
2016-10-31T12:42:04.144Z,5972
2016-10-31T12:43:04.145Z,5944
2016-10-31T12:44:04.193Z,5920
2016-10-31T12:45:04.173Z,5884
2016-10-31T12:46:04.184Z,5848
2016-10-31T12:47:04.204Z,5812
2016-10-31T12:48:04.236Z,5772
2016-10-31T12:49:04.246Z,5744
2016-10-31T12:50:04.256Z,5712
2016-10-31T12:51:04.289Z,5680
2016-10-31T12:52:04.316Z,5656
2016-10-31T12:53:04.322Z,5632
2016-10-31T12:54:04.351Z,5608
2016-10-31T12:55:04.371Z,5572
2016-10-31T12:56:04.384Z,5548
2016-10-31T12:57:04.397Z,5532
2016-10-31T12:58:04.434Z,5520
2016-10-31T12:59:04.439Z,5504
2016-10-31T13:00:04.472Z,5488
2016-10-31T13:01:04.480Z,5480
2016-10-31T13:02:04.510Z,5476
2016-10-31T13:03:04.526Z,5452
2016-10-31T13:04:04.531Z,5420
2016-10-31T13:05:04.564Z,5384
2016-10-31T13:06:04.576Z,5352
2016-10-31T13:07:04.612Z,5324
2016-10-31T13:08:04.616Z,5312
2016-10-31T13:09:04.637Z,5312
2016-10-31T13:10:04.669Z,5312
2016-10-31T13:11:04.705Z,5300
2016-10-31T13:12:04.696Z,5280
2016-10-31T13:13:04.714Z,5268
2016-10-31T13:14:04.726Z,5256
2016-10-31T13:15:04.756Z,5232
2016-10-31T13:16:04.825Z,5192
2016-10-31T13:17:04.798Z,5164
2016-10-31T13:18:04.807Z,5124
2016-10-31T13:19:04.817Z,5084
2016-10-31T13:20:04.834Z,5048
2016-10-31T13:21:04.854Z,5004
2016-10-31T13:22:04.886Z,4972
2016-10-31T13:23:05.259Z,4976
2016-10-31T13:24:04.940Z,4908
2016-10-31T13:25:04.945Z,4772
2016-10-31T13:26:04.970Z,4520
2016-10-31T13:27:04.997Z,4712
2016-10-31T13:28:05.014Z,4352
2016-10-31T13:29:05.024Z,3828
2016-10-31T13:30:05.034Z,3768
2016-10-31T13:31:05.068Z,3760
2016-10-31T13:32:05.095Z,3836
2016-10-31T13:33:05.106Z,4180
2016-10-31T13:34:05.134Z,4372
2016-10-31T13:35:05.126Z,4820
2016-10-31T13:36:05.169Z,4832
2016-10-31T13:37:05.405Z,4792
2016-10-31T13:38:05.199Z,4704
2016-10-31T13:39:05.221Z,4544
2016-10-31T13:40:05.254Z,3852
2016-10-31T13:41:06.055Z,3804
2016-10-31T13:42:05.277Z,3884
2016-10-31T13:43:05.295Z,3952
2016-10-31T13:44:05.333Z,3780
2016-10-31T13:45:05.346Z,3688
2016-10-31T13:46:05.370Z,3664
2016-10-31T13:47:05.372Z,3624
2016-10-31T13:48:05.394Z,3596
2016-10-31T13:49:05.403Z,3604
2016-10-31T13:50:05.437Z,3632
2016-10-31T13:51:05.460Z,3648
2016-10-31T13:52:05.462Z,3672
2016-10-31T13:53:05.486Z,3692
2016-10-31T13:54:05.519Z,3704
2016-10-31T13:55:05.539Z,3700
2016-10-31T13:56:05.545Z,3704
2016-10-31T13:57:05.567Z,3708